Time;durP1;ratioP1;P1;durP2;ratioP2;P2;SDS_P1;SDS_P2;PMS_P1;PMS_P2;Temp;Humidity;BMP_temperature;BMP_pressure;BME280_temperature;BME280_humidity;BME280_pressure;Samples;Min_cycle;Max_cycle;Signal;HPM_P1;HPM_P2
2023/12/15 00:00:59;;;;;;;13.15;8.10;;;;;;;20.90;54.66;100544.41;41685694;28;20503;-66
2023/12/15 00:21:00;;;;;;;10.05;7.45;;;;;;;20.90;55.05;100571.56;41678490;28;20132;-68
2023/12/15 00:41:00;;;;;;;11.05;7.82;;;;;;;20.86;55.00;100587.69;41686902;28;20057;-67
2023/12/15 01:01:00;;;;;;;10.07;7.53;;;;;;;20.85;54.73;100628.13;41674694;28;20112;-67
2023/12/15 01:21:01;;;;;;;9.50;7.57;;;;;;;20.81;54.76;100632.75;41673634;28;20409;-69
2023/12/15 01:41:02;;;;;;;9.45;6.97;;;;;;;20.76;54.62;100655.94;41659426;28;20088;-68
2023/12/15 02:21:12;;;;;;;8.48;6.70;;;;;;;20.70;54.45;100678.25;42596965;22;20068;-73
2023/12/15 02:41:14;;;;;;;8.85;6.70;;;;;;;20.68;54.51;100695.06;41663702;28;20464;-72
2023/12/15 03:01:15;;;;;;;7.97;5.95;;;;;;;20.65;54.44;100709.28;41700450;28;20048;-72
2023/12/15 03:21:15;;;;;;;7.22;5.88;;;;;;;20.66;54.26;100732.03;41708568;28;20416;-71
2023/12/15 03:41:17;;;;;;;7.55;5.93;;;;;;;20.63;54.33;100753.31;41710747;28;20140;-72
2023/12/15 04:01:23;;;;;;;6.45;5.50;;;;;;;20.58;54.36;100753.63;41698341;28;20076;-76
2023/12/15 04:21:24;;;;;;;7.00;6.10;;;;;;;20.58;54.01;100797.50;41685565;28;20073;-74
2023/12/15 04:41:26;;;;;;;6.80;5.38;;;;;;;20.53;54.23;100831.16;41695189;28;20052;-72
2023/12/15 05:01:27;;;;;;;6.43;5.10;;;;;;;20.55;54.18;100869.56;41691484;28;20067;-71
2023/12/15 05:21:27;;;;;;;8.00;5.13;;;;;;;20.94;53.01;100902.06;41694720;28;20131;-73
2023/12/15 05:41:28;;;;;;;10.43;5.70;;;;;;;21.49;53.23;100928.16;41668603;28;20057;-71
2023/12/15 06:01:28;;;;;;;14.60;7.82;;;;;;;21.69;53.79;100947.91;41653837;28;20108;-68
2023/12/15 06:21:29;;;;;;;14.07;6.88;;;;;;;21.73;53.10;101002.06;41692049;28;20063;-75
2023/12/15 06:41:30;;;;;;;15.23;6.40;;;;;;;21.30;47.88;101028.72;41684329;28;21161;-74
2023/12/15 07:01:31;;;;;;;10.30;6.15;;;;;;;21.67;50.51;101073.66;41685935;28;20049;-74
2023/12/15 07:21:31;;;;;;;10.50;5.80;;;;;;;21.71;51.01;101129.66;41710686;28;20044;-73
2023/12/15 07:41:32;;;;;;;7.38;5.10;;;;;;;21.75;51.13;101171.53;41702524;28;20158;-73
2023/12/15 08:01:32;;;;;;;10.68;5.50;;;;;;;21.77;51.54;101218.84;41754985;28;20072;-75
2023/12/15 08:21:32;;;;;;;9.57;6.22;;;;;;;21.87;50.89;101245.44;41730705;28;20044;-73
2023/12/15 08:41:33;;;;;;;7.05;5.78;;;;;;;21.89;50.32;101291.03;41730147;28;20056;-73
2023/12/15 09:01:33;;;;;;;10.38;7.45;;;;;;;22.06;51.84;101317.13;41695821;28;20052;-75
2023/12/15 09:21:34;;;;;;;12.30;8.60;;;;;;;21.91;51.80;101337.44;41688120;28;20060;-78
2023/12/15 09:41:35;;;;;;;13.00;8.43;;;;;;;21.89;51.31;101370.97;41671974;28;20492;-75
2023/12/15 10:01:37;;;;;;;12.30;7.90;;;;;;;21.93;51.21;101394.50;41703062;28;20984;-76
2023/12/15 10:21:38;;;;;;;13.15;8.23;;;;;;;21.86;51.32;101426.53;41686472;28;20042;-73
2023/12/15 10:41:39;;;;;;;16.25;8.45;;;;;;;21.88;51.02;101447.53;41690652;28;20587;-75
2023/12/15 11:01:42;;;;;;;12.02;8.68;;;;;;;21.79;50.31;101469.19;41728426;28;20146;-75
2023/12/15 11:21:42;;;;;;;11.27;8.70;;;;;;;21.78;50.33;101480.72;41706610;28;20707;-71
2023/12/15 11:41:44;;;;;;;9.07;7.53;;;;;;;;;;41691111;28;20049;-73
2023/12/15 12:01:44;;;;;;;10.23;7.35;;;;;;;21.69;49.69;101508.47;41711664;28;20053;-74
2023/12/15 12:21:46;;;;;;;9.27;6.82;;;;;;;21.58;50.38;101504.72;41705875;28;20478;-74
2023/12/15 12:41:46;;;;;;;12.73;6.63;;;;;;;21.78;50.49;101547.47;41703912;28;20061;-76
2023/12/15 13:01:46;;;;;;;8.07;6.18;;;;;;;21.72;50.37;101556.59;41735376;28;20041;-74
2023/12/15 13:21:47;;;;;;;8.75;5.43;;;;;;;21.73;50.23;101599.63;41714731;28;20326;-75
2023/12/15 13:41:50;;;;;;;7.00;5.57;;;;;;;21.79;49.44;101627.38;41725736;28;20068;-75
2023/12/15 14:01:50;;;;;;;16.25;8.35;;;;;;;21.48;43.44;101676.63;41686969;28;20562;-76
2023/12/15 14:21:51;;;;;;;15.13;6.97;;;;;;;21.65;46.40;101689.69;41723278;28;20049;-73
2023/12/15 14:41:51;;;;;;;10.18;6.10;;;;;;;21.65;46.84;101721.31;41721785;28;20500;-74
2023/12/15 15:01:57;;;;;;;12.02;6.10;;;;;;;21.58;47.05;101760.38;41748664;28;20076;-75
2023/12/15 15:21:59;;;;;;;8.13;5.70;;;;;;;21.47;47.53;101801.41;41758584;28;20069;-74
2023/12/15 15:42:00;;;;;;;9.02;5.80;;;;;;;21.44;47.67;101813.81;41741881;28;20038;-73
2023/12/15 16:02:00;;;;;;;8.18;5.18;;;;;;;21.40;47.16;101848.38;41708411;28;20132;-74
2023/12/15 16:22:04;;;;;;;7.05;4.72;;;;;;;21.33;47.03;101892.63;41715363;28;20045;-75
2023/12/15 16:42:08;;;;;;;6.13;4.50;;;;;;;21.30;46.07;101927.06;41699527;28;20064;-74
2023/12/15 17:02:08;;;;;;;6.97;4.45;;;;;;;21.22;46.53;101955.59;41684660;28;24001;-76
2023/12/15 17:22:09;;;;;;;6.97;4.05;;;;;;;21.26;46.31;101996.63;41715774;28;20037;-74
2023/12/15 17:42:09;;;;;;;7.82;4.00;;;;;;;21.23;47.47;102033.69;41736666;28;20078;-75
2023/12/15 18:02:10;;;;;;;8.10;4.30;;;;;;;21.49;47.67;102069.22;41786011;28;20045;-78
2023/12/15 18:22:10;;;;;;;11.68;7.85;;;;;;;21.55;49.35;102078.59;41697796;28;20147;-76
2023/12/15 18:42:11;;;;;;;15.68;10.65;;;;;;;21.49;49.36;102105.28;41685415;28;21152;-76
2023/12/15 19:02:12;;;;;;;13.93;9.88;;;;;;;21.45;49.08;102130.94;41702123;28;20598;-77
2023/12/15 19:22:12;;;;;;;12.70;8.77;;;;;;;21.33;49.41;102127.13;41721673;28;20051;-75
2023/12/15 19:42:13;;;;;;;10.98;7.70;;;;;;;21.31;49.61;102144.78;41742990;28;20445;-77
2023/12/15 20:02:17;;;;;;;9.70;6.78;;;;;;;21.34;49.57;102159.63;41758431;28;20033;-77
2023/12/15 20:22:17;;;;;;;8.98;6.63;;;;;;;21.30;49.34;102174.72;41726340;28;20059;-71
2023/12/15 20:42:18;;;;;;;8.77;6.13;;;;;;;21.42;49.58;102184.66;41706178;28;20101;-77
2023/12/15 21:02:19;;;;;;;10.43;6.10;;;;;;;20.86;47.80;102177.72;41690464;28;20056;-76
2023/12/15 21:22:19;;;;;;;9.65;5.50;;;;;;;20.94;48.79;102191.38;41695795;28;20538;-76
2023/12/15 21:42:20;;;;;;;8.00;5.10;;;;;;;20.94;49.00;102196.66;41694886;28;20922;-74
2023/12/15 22:02:20;;;;;;;8.70;5.35;;;;;;;20.83;49.53;102212.13;41661283;28;20127;-75
2023/12/15 22:22:20;;;;;;;6.75;4.97;;;;;;;20.77;49.24;102214.09;41692647;28;20458;-74
2023/12/15 22:42:21;;;;;;;7.45;4.85;;;;;;;20.72;49.63;102194.19;41685787;28;20049;-75
2023/12/15 23:02:22;;;;;;;5.60;4.70;;;;;;;20.65;49.87;102175.16;41685588;28;20041;-79
2023/12/15 23:22:22;;;;;;;6.65;4.60;;;;;;;20.58;50.62;102174.59;41701209;28;20041;-74
2023/12/15 23:42:23;;;;;;;7.25;4.60;;;;;;;20.55;50.64;102202.81;41710668;28;20048;-74
